Time;durP1;ratioP1;P1;durP2;ratioP2;P2;SDS_P1;SDS_P2;PMS_P1;PMS_P2;Temp;Humidity;BMP_temperature;BMP_pressure;BME280_temperature;BME280_humidity;BME280_pressure;Samples;Min_cycle;Max_cycle;Signal;HPM_P1;HPM_P2
2021/07/26 00:01:40;;;;;;;18.20;13.20;;;20.30;99.90;;;;;;5049253;28;20045;-48
2021/07/26 00:04:07;;;;;;;15.05;13.25;;;20.30;99.90;;;;;;5063660;28;20049;-49
2021/07/26 00:06:33;;;;;;;15.50;13.23;;;20.30;99.90;;;;;;5063758;28;20040;-48
2021/07/26 00:08:59;;;;;;;15.82;13.35;;;20.20;99.90;;;;;;5051299;28;20017;-48
2021/07/26 00:11:25;;;;;;;15.32;13.15;;;20.20;99.90;;;;;;5065837;28;20055;-51
2021/07/26 00:13:50;;;;;;;18.13;14.27;;;20.20;99.90;;;;;;5049773;28;20021;-50
2021/07/26 00:16:16;;;;;;;17.92;15.18;;;20.10;99.90;;;;;;5060289;28;20056;-49
2021/07/26 00:18:41;;;;;;;19.80;15.38;;;20.10;99.90;;;;;;5058406;28;20081;-48
2021/07/26 00:21:07;;;;;;;17.02;14.30;;;20.20;99.90;;;;;;5057741;28;20032;-49
2021/07/26 00:23:32;;;;;;;17.90;14.30;;;20.20;99.90;;;;;;5062142;28;20039;-47
2021/07/26 00:25:58;;;;;;;18.92;14.63;;;20.10;99.90;;;;;;5065600;28;20036;-50
2021/07/26 00:28:23;;;;;;;20.00;15.00;;;20.10;99.90;;;;;;5047838;28;20024;-51
2021/07/26 00:30:49;;;;;;;18.27;15.00;;;20.10;99.90;;;;;;5066779;28;20481;-49
2021/07/26 00:36:27;;;;;;;20.23;14.82;;;20.00;99.90;;;;;;5050817;28;20048;-50
2021/07/26 00:38:52;;;;;;;17.88;13.45;;;19.90;99.90;;;;;;5059037;28;20491;-47
2021/07/26 00:41:18;;;;;;;18.23;14.27;;;19.90;99.90;;;;;;5064610;28;20399;-48
2021/07/26 00:43:43;;;;;;;16.90;14.30;;;19.80;99.90;;;;;;5054302;28;20025;-48
2021/07/26 00:46:09;;;;;;;17.30;14.35;;;19.80;99.90;;;;;;5066845;28;20035;-48
2021/07/26 00:48:34;;;;;;;20.42;16.08;;;19.70;99.90;;;;;;5060636;28;20029;-47
2021/07/26 00:51:02;;;;;;;18.27;15.05;;;19.80;99.90;;;;;;5057694;28;20059;-50
2021/07/26 00:53:28;;;;;;;20.10;16.30;;;19.70;99.90;;;;;;5055908;28;20058;-48
2021/07/26 00:55:54;;;;;;;17.00;14.63;;;19.70;99.90;;;;;;5059333;28;20013;-50
2021/07/26 00:58:19;;;;;;;20.83;15.82;;;19.80;99.90;;;;;;5060083;28;20547;-48
2021/07/26 01:00:45;;;;;;;20.98;15.23;;;19.70;99.90;;;;;;5059320;28;20025;-48
2021/07/26 01:03:10;;;;;;;20.30;15.50;;;19.80;99.90;;;;;;5064644;28;20135;-47
2021/07/26 01:05:35;;;;;;;20.60;16.27;;;19.80;99.90;;;;;;5056936;28;20056;-50
2021/07/26 01:08:01;;;;;;;18.50;15.70;;;19.80;99.90;;;;;;5055710;28;20441;-48
2021/07/26 01:10:26;;;;;;;20.15;15.10;;;19.70;99.90;;;;;;5055678;28;20339;-47
2021/07/26 01:12:52;;;;;;;19.67;14.77;;;19.80;99.90;;;;;;5058613;28;20067;-47
2021/07/26 01:15:18;;;;;;;20.25;16.23;;;19.80;99.90;;;;;;5063608;28;20047;-49
2021/07/26 01:18:22;;;;;;;19.52;15.93;;;19.80;99.90;;;;;;5046117;28;20024;-48
2021/07/26 01:20:56;;;;;;;23.90;15.98;;;19.90;99.90;;;;;;5056191;28;20124;-47
2021/07/26 01:23:23;;;;;;;20.27;15.80;;;20.00;99.90;;;;;;5054926;28;20047;-51
2021/07/26 01:25:49;;;;;;;18.08;15.02;;;20.00;99.90;;;;;;5063813;28;20029;-47
2021/07/26 01:28:16;;;;;;;22.52;16.25;;;20.00;99.90;;;;;;5047397;28;20033;-47
2021/07/26 01:30:42;;;;;;;21.15;15.55;;;20.00;99.90;;;;;;5066072;28;20043;-46
2021/07/26 01:33:12;;;;;;;18.77;15.25;;;20.00;99.90;;;;;;5060953;28;20111;-46
2021/07/26 01:35:38;;;;;;;18.95;14.77;;;20.10;99.90;;;;;;5061137;28;20024;-47
2021/07/26 01:38:05;;;;;;;17.60;14.18;;;20.10;99.90;;;;;;5058480;28;20103;-47
2021/07/26 01:40:34;;;;;;;20.52;15.50;;;20.10;99.90;;;;;;5061388;28;20086;-48
2021/07/26 01:43:02;;;;;;;18.98;15.15;;;20.10;99.90;;;;;;5043664;28;20498;-47
2021/07/26 01:45:29;;;;;;;22.55;16.00;;;20.20;99.90;;;;;;5061350;28;20465;-47
2021/07/26 01:48:01;;;;;;;19.17;14.82;;;20.10;99.90;;;;;;5054743;28;20435;-47
2021/07/26 01:50:29;;;;;;;18.05;14.55;;;20.20;99.90;;;;;;5058637;28;20091;-47
2021/07/26 01:52:56;;;;;;;19.98;15.40;;;20.10;99.90;;;;;;5062789;28;20023;-47
2021/07/26 01:55:21;;;;;;;18.02;14.95;;;20.10;99.90;;;;;;5047453;28;20021;-48
2021/07/26 01:57:47;;;;;;;17.20;14.13;;;20.10;99.90;;;;;;5063080;28;20021;-47
2021/07/26 02:00:14;;;;;;;15.38;13.35;;;20.10;99.90;;;;;;5061570;28;20024;-47
2021/07/26 02:02:40;;;;;;;17.20;13.75;;;20.10;99.90;;;;;;5063120;28;20477;-47
2021/07/26 02:05:06;;;;;;;17.10;14.55;;;20.00;99.90;;;;;;5057550;28;20044;-47
2021/07/26 02:07:31;;;;;;;17.05;12.95;;;20.00;99.90;;;;;;5056346;28;20436;-46
2021/07/26 02:09:56;;;;;;;16.30;13.73;;;19.90;99.90;;;;;;5062638;28;20379;-48
2021/07/26 02:12:22;;;;;;;14.93;12.60;;;19.90;99.90;;;;;;5055765;28;20025;-49
2021/07/26 02:14:47;;;;;;;19.13;14.27;;;19.90;99.90;;;;;;5062873;28;20058;-46
2021/07/26 02:17:13;;;;;;;20.38;13.95;;;19.80;99.90;;;;;;5044111;28;20035;-48
2021/07/26 02:19:39;;;;;;;17.23;14.10;;;19.80;99.90;;;;;;5056240;28;20937;-49
2021/07/26 02:22:04;;;;;;;15.30;13.43;;;19.80;99.90;;;;;;5057556;28;20402;-47
2021/07/26 02:24:30;;;;;;;18.23;14.40;;;19.70;99.90;;;;;;5060861;28;20091;-46
2021/07/26 02:26:55;;;;;;;16.05;13.43;;;19.70;99.90;;;;;;5056753;28;20104;-47
2021/07/26 02:29:21;;;;;;;16.85;13.80;;;19.70;99.90;;;;;;5061227;28;20413;-49
2021/07/26 02:31:46;;;;;;;18.55;13.95;;;19.60;99.90;;;;;;5064139;28;20025;-47
2021/07/26 02:34:12;;;;;;;16.10;13.38;;;19.50;99.90;;;;;;5052139;28;20038;-48
2021/07/26 02:36:38;;;;;;;16.95;14.02;;;19.50;99.90;;;;;;5031998;28;20103;-47
2021/07/26 02:39:04;;;;;;;17.45;13.85;;;19.50;99.90;;;;;;5032985;28;20452;-47
2021/07/26 02:41:30;;;;;;;26.50;15.88;;;19.50;99.90;;;;;;5038737;28;20344;-47
2021/07/26 02:43:56;;;;;;;20.42;15.15;;;19.50;99.90;;;;;;5036034;28;20079;-49
2021/07/26 02:46:22;;;;;;;18.60;14.85;;;19.60;99.90;;;;;;5034405;28;20037;-47
2021/07/26 02:48:47;;;;;;;21.63;15.98;;;19.50;99.90;;;;;;5038562;28;20041;-47
2021/07/26 02:51:14;;;;;;;21.42;16.52;;;19.60;99.90;;;;;;5036156;28;20029;-47
2021/07/26 02:53:41;;;;;;;20.65;17.00;;;19.60;99.90;;;;;;5030665;28;20510;-48
2021/07/26 02:56:08;;;;;;;22.30;15.80;;;19.50;99.90;;;;;;5031762;28;20013;-47
2021/07/26 02:58:34;;;;;;;23.65;16.67;;;19.50;99.90;;;;;;5034010;28;20037;-48
2021/07/26 03:00:59;;;;;;;20.73;16.27;;;19.50;99.90;;;;;;5031432;28;20317;-47
2021/07/26 03:03:25;;;;;;;21.25;16.42;;;19.50;99.90;;;;;;5030967;28;20374;-47
2021/07/26 03:05:50;;;;;;;20.38;16.08;;;19.50;99.90;;;;;;5029415;28;20021;-47
2021/07/26 03:08:16;;;;;;;24.02;17.38;;;19.50;99.90;;;;;;5031470;28;20473;-46
2021/07/26 03:10:41;;;;;;;22.05;16.58;;;19.40;99.90;;;;;;5031435;28;20033;-49
2021/07/26 03:13:07;;;;;;;23.42;17.70;;;19.40;99.90;;;;;;5033553;28;20356;-48
2021/07/26 03:15:36;;;;;;;26.88;17.70;;;19.40;99.90;;;;;;5030754;28;20026;-47
2021/07/26 03:18:01;;;;;;;22.27;17.20;;;19.40;99.90;;;;;;5031892;28;20020;-49
2021/07/26 03:20:27;;;;;;;24.15;17.45;;;19.30;99.90;;;;;;5033129;28;20033;-48
2021/07/26 03:23:03;;;;;;;24.63;17.73;;;19.30;99.90;;;;;;5033342;28;20037;-47
2021/07/26 03:25:31;;;;;;;22.48;17.52;;;19.30;99.90;;;;;;5030733;28;20025;-49
2021/07/26 03:27:59;;;;;;;24.50;17.48;;;19.30;99.90;;;;;;5032884;28;20468;-49
2021/07/26 03:30:25;;;;;;;24.17;17.95;;;19.20;99.90;;;;;;5029779;28;20025;-48
2021/07/26 03:32:50;;;;;;;21.33;17.48;;;19.20;99.90;;;;;;5031184;28;20022;-48
2021/07/26 03:35:18;;;;;;;23.85;17.20;;;19.20;99.90;;;;;;5030478;28;20032;-47
2021/07/26 03:37:44;;;;;;;22.95;18.27;;;19.20;99.90;;;;;;5030862;28;20028;-46
2021/07/26 03:40:11;;;;;;;24.65;18.48;;;19.10;99.90;;;;;;5030504;28;20028;-47
2021/07/26 03:42:38;;;;;;;22.13;17.92;;;19.10;99.90;;;;;;5031821;28;20029;-47
2021/07/26 03:45:05;;;;;;;23.13;17.33;;;19.10;99.90;;;;;;5030470;28;20056;-47
2021/07/26 03:47:31;;;;;;;23.08;18.25;;;19.10;99.90;;;;;;5041623;28;20030;-51
2021/07/26 03:49:56;;;;;;;24.15;17.85;;;19.10;99.90;;;;;;5041515;28;20501;-48
2021/07/26 03:52:22;;;;;;;24.45;18.52;;;19.00;99.90;;;;;;5035357;28;20041;-46
2021/07/26 03:54:47;;;;;;;26.00;18.63;;;19.00;99.90;;;;;;5052923;28;20127;-48
2021/07/26 03:57:13;;;;;;;24.52;18.65;;;19.00;99.90;;;;;;5051708;28;20020;-47
2021/07/26 03:59:38;;;;;;;29.60;18.48;;;18.90;99.90;;;;;;5055982;28;20443;-47
2021/07/26 04:02:04;;;;;;;26.50;18.90;;;18.90;99.90;;;;;;5057668;28;20437;-50
2021/07/26 04:04:30;;;;;;;25.27;18.23;;;18.90;99.90;;;;;;5058746;28;20032;-48
2021/07/26 04:06:59;;;;;;;24.90;19.80;;;18.90;99.90;;;;;;5055989;28;20036;-48
2021/07/26 04:09:28;;;;;;;24.38;18.77;;;18.90;99.90;;;;;;5052544;28;20020;-49
2021/07/26 04:12:16;;;;;;;24.27;17.80;;;18.90;99.90;;;;;;5057228;28;20021;-48
2021/07/26 04:14:42;;;;;;;22.33;17.75;;;18.90;99.90;;;;;;5057754;28;20048;-50
2021/07/26 04:17:08;;;;;;;25.85;18.23;;;18.90;99.90;;;;;;5042798;28;20026;-47
2021/07/26 04:19:33;;;;;;;24.23;18.10;;;18.90;99.90;;;;;;5061506;28;20097;-46
2021/07/26 04:22:00;;;;;;;27.50;19.23;;;18.90;99.90;;;;;;5058953;28;20013;-46
2021/07/26 04:24:26;;;;;;;23.10;17.35;;;18.90;99.90;;;;;;5063550;28;20399;-47
2021/07/26 04:26:52;;;;;;;23.85;18.38;;;18.90;99.90;;;;;;5058254;28;20032;-47
2021/07/26 04:29:19;;;;;;;24.65;17.92;;;18.90;99.90;;;;;;5058597;28;20032;-47
2021/07/26 04:31:44;;;;;;;21.75;17.90;;;19.00;99.90;;;;;;5033919;28;20511;-50
2021/07/26 04:34:11;;;;;;;20.13;16.85;;;19.10;99.90;;;;;;5031060;28;20068;-48
2021/07/26 04:36:36;;;;;;;22.55;16.92;;;19.10;99.90;;;;;;5037294;28;20048;-47
2021/07/26 04:39:02;;;;;;;23.52;17.33;;;19.20;99.90;;;;;;5039669;28;20053;-47
2021/07/26 04:41:27;;;;;;;20.73;17.10;;;19.20;99.90;;;;;;5051740;28;20022;-49
2021/07/26 04:43:53;;;;;;;26.50;17.52;;;19.20;99.90;;;;;;5041020;28;20040;-48
2021/07/26 04:46:18;;;;;;;22.10;17.40;;;19.30;99.90;;;;;;5053680;28;20158;-48
2021/07/26 04:48:44;;;;;;;20.15;16.20;;;19.40;99.90;;;;;;5048644;28;20392;-47
2021/07/26 04:51:09;;;;;;;19.20;15.48;;;19.50;99.90;;;;;;5039895;28;20113;-47
2021/07/26 04:53:35;;;;;;;21.08;16.55;;;19.50;99.90;;;;;;5055401;28;20494;-47
2021/07/26 04:56:00;;;;;;;19.83;15.63;;;19.60;99.90;;;;;;5039660;28;20018;-46
2021/07/26 04:58:26;;;;;;;25.45;16.25;;;19.70;99.90;;;;;;5051672;28;20036;-47
2021/07/26 05:00:52;;;;;;;20.70;17.08;;;19.90;99.90;;;;;;5041522;28;20506;-47
2021/07/26 05:03:17;;;;;;;23.10;18.35;;;20.00;99.90;;;;;;5040300;28;20059;-49
2021/07/26 05:05:43;;;;;;;24.27;17.02;;;20.10;99.90;;;;;;5028676;28;20029;-50
2021/07/26 05:08:09;;;;;;;21.10;16.73;;;20.20;99.90;;;;;;5035083;28;20025;-46
2021/07/26 05:10:35;;;;;;;21.67;17.38;;;20.40;99.90;;;;;;5050887;28;20029;-47
2021/07/26 05:13:00;;;;;;;22.38;16.35;;;20.50;99.90;;;;;;5036026;28;20029;-50
2021/07/26 05:15:26;;;;;;;22.60;15.55;;;20.60;99.90;;;;;;5057853;28;20031;-47
2021/07/26 05:17:51;;;;;;;22.02;16.27;;;20.80;99.90;;;;;;5044569;28;20047;-47
2021/07/26 05:20:17;;;;;;;19.67;14.60;;;20.90;99.90;;;;;;5053993;28;20041;-47
2021/07/26 05:22:43;;;;;;;20.27;15.25;;;21.10;99.90;;;;;;5043390;28;20042;-48
2021/07/26 05:25:09;;;;;;;21.48;15.25;;;21.20;99.90;;;;;;5048364;28;20087;-47
2021/07/26 05:27:35;;;;;;;19.23;14.40;;;21.40;99.90;;;;;;5046718;28;20104;-48
2021/07/26 05:30:03;;;;;;;19.27;14.55;;;21.50;99.90;;;;;;5036423;28;20171;-49
2021/07/26 05:32:29;;;;;;;20.67;14.95;;;21.50;99.90;;;;;;5035121;28;20467;-48
2021/07/26 05:34:54;;;;;;;20.27;14.75;;;21.50;99.90;;;;;;5032745;28;20022;-48
2021/07/26 05:37:20;;;;;;;18.98;14.00;;;21.40;99.90;;;;;;5035938;28;20064;-49
2021/07/26 05:39:45;;;;;;;18.60;14.85;;;21.50;99.90;;;;;;5034067;28;20164;-50
2021/07/26 05:42:11;;;;;;;19.73;15.25;;;21.50;99.90;;;;;;5036585;28;20371;-48
2021/07/26 05:44:41;;;;;;;22.30;15.20;;;21.50;99.90;;;;;;5032995;28;20053;-49
2021/07/26 05:47:08;;;;;;;20.83;15.27;;;21.60;99.90;;;;;;5036314;28;20044;-49
2021/07/26 05:49:34;;;;;;;22.88;14.88;;;21.60;99.90;;;;;;5050890;28;20037;-50
2021/07/26 05:52:00;;;;;;;20.23;15.25;;;21.50;99.90;;;;;;5043180;28;20495;-48
2021/07/26 05:54:26;;;;;;;17.23;13.95;;;21.40;99.90;;;;;;5053209;28;20029;-47
2021/07/26 05:56:51;;;;;;;18.58;13.75;;;21.30;99.90;;;;;;5047741;28;20064;-49
2021/07/26 05:59:17;;;;;;;18.67;14.98;;;21.30;99.90;;;;;;5050388;28;20433;-47
2021/07/26 06:01:49;;;;;;;20.30;13.93;;;21.20;99.90;;;;;;5045416;28;20082;-50
2021/07/26 06:04:22;;;;;;;18.58;12.70;;;21.40;99.90;;;;;;5051505;28;20468;-50
2021/07/26 06:06:55;;;;;;;19.23;13.73;;;21.40;99.90;;;;;;5052988;28;20551;-47
2021/07/26 06:09:22;;;;;;;16.25;12.10;;;21.50;99.90;;;;;;5053372;28;20617;-47
2021/07/26 06:11:51;;;;;;;15.00;11.18;;;21.60;99.90;;;;;;5048910;28;20440;-48
2021/07/26 06:14:16;;;;;;;13.95;10.43;;;21.70;99.90;;;;;;5047922;28;20029;-48
2021/07/26 06:16:47;;;;;;;13.98;10.30;;;21.80;99.90;;;;;;5041360;28;20076;-47
2021/07/26 06:19:13;;;;;;;14.90;10.35;;;21.90;99.90;;;;;;5061059;28;20036;-47
2021/07/26 06:21:45;;;;;;;11.23;9.23;;;22.00;99.90;;;;;;5052848;28;20108;-50
2021/07/26 06:24:12;;;;;;;10.30;8.88;;;22.20;99.90;;;;;;5053636;28;20016;-48
2021/07/26 06:26:38;;;;;;;14.55;9.80;;;22.30;99.90;;;;;;5057663;28;20621;-50
2021/07/26 06:29:04;;;;;;;11.02;8.20;;;22.40;99.90;;;;;;5060344;28;20097;-48
2021/07/26 06:31:32;;;;;;;13.07;8.48;;;22.50;99.90;;;;;;5054508;28;20394;-48
2021/07/26 06:33:58;;;;;;;11.07;8.30;;;22.30;99.90;;;;;;5056318;28;20426;-48
2021/07/26 06:36:23;;;;;;;11.10;8.38;;;22.30;99.90;;;;;;5059249;28;20031;-50
2021/07/26 06:38:49;;;;;;;12.90;9.15;;;22.20;99.90;;;;;;5057483;28;20021;-47
2021/07/26 06:41:14;;;;;;;15.00;8.57;;;22.10;99.90;;;;;;5045015;28;20133;-50
2021/07/26 06:43:40;;;;;;;10.45;8.32;;;22.10;99.90;;;;;;5056732;28;20430;-46
2021/07/26 06:46:06;;;;;;;11.25;7.90;;;21.90;99.90;;;;;;5064002;28;20408;-47
2021/07/26 06:48:32;;;;;;;11.88;8.40;;;21.90;99.90;;;;;;5053797;28;20371;-49
2021/07/26 06:50:58;;;;;;;11.20;8.73;;;22.00;99.90;;;;;;5052765;28;20478;-46
2021/07/26 06:53:25;;;;;;;9.50;8.27;;;22.00;99.90;;;;;;5060260;28;20036;-48
2021/07/26 06:55:51;;;;;;;11.52;7.93;;;22.00;99.90;;;;;;5055808;28;20013;-49
2021/07/26 06:58:16;;;;;;;9.45;7.72;;;22.10;99.90;;;;;;5047678;28;20411;-47
2021/07/26 07:00:42;;;;;;;12.60;8.70;;;22.20;99.90;;;;;;5046488;28;20033;-46
2021/07/26 07:03:07;;;;;;;11.20;8.45;;;22.30;99.90;;;;;;5062875;28;20028;-47
2021/07/26 07:05:33;;;;;;;12.52;8.02;;;22.40;99.90;;;;;;5054736;28;20123;-46
2021/07/26 07:07:58;;;;;;;16.40;8.82;;;22.50;99.90;;;;;;5057514;28;20029;-47
2021/07/26 07:10:24;;;;;;;10.63;6.85;;;22.50;99.90;;;;;;5047108;28;20033;-46
2021/07/26 07:12:51;;;;;;;10.18;6.80;;;22.50;99.90;;;;;;5044770;28;20382;-49
2021/07/26 07:15:19;;;;;;;8.50;6.45;;;22.70;99.90;;;;;;5053784;28;20086;-50
2021/07/26 07:17:46;;;;;;;8.10;6.97;;;22.70;99.90;;;;;;5040374;28;20014;-50
2021/07/26 07:20:12;;;;;;;9.68;7.03;;;22.80;99.90;;;;;;5057875;28;20036;-47
2021/07/26 07:22:38;;;;;;;10.80;7.55;;;22.90;99.90;;;;;;5063082;28;20043;-50
2021/07/26 07:25:04;;;;;;;11.25;6.65;;;23.10;99.90;;;;;;5061855;28;20043;-50
2021/07/26 07:27:29;;;;;;;11.27;6.75;;;23.00;99.90;;;;;;5047713;28;20024;-47
2021/07/26 07:29:55;;;;;;;10.43;6.60;;;23.00;99.90;;;;;;5058070;28;20017;-48
2021/07/26 07:32:21;;;;;;;8.40;6.50;;;23.10;99.90;;;;;;5051830;28;20028;-48
2021/07/26 07:34:47;;;;;;;9.13;6.88;;;23.10;99.90;;;;;;5061432;28;20135;-47
2021/07/26 07:37:12;;;;;;;7.82;6.05;;;23.10;99.90;;;;;;5054994;28;20028;-47
2021/07/26 07:39:38;;;;;;;10.25;8.00;;;23.10;99.90;;;;;;5062507;28;20033;-47
2021/07/26 07:42:04;;;;;;;8.40;6.43;;;23.20;99.90;;;;;;5059954;28;20416;-47
2021/07/26 07:44:32;;;;;;;10.38;6.90;;;23.40;99.90;;;;;;5064059;28;20017;-46
2021/07/26 07:46:58;;;;;;;8.18;6.68;;;23.70;99.90;;;;;;5063497;28;20025;-47
2021/07/26 07:49:24;;;;;;;11.68;6.80;;;23.90;99.90;;;;;;5055751;28;20029;-47
2021/07/26 07:51:49;;;;;;;10.73;6.13;;;24.00;99.90;;;;;;5057698;28;20450;-46
2021/07/26 07:54:15;;;;;;;8.90;6.20;;;24.10;99.90;;;;;;5061092;28;20101;-48
2021/07/26 07:56:42;;;;;;;10.32;6.78;;;24.00;99.90;;;;;;5059251;28;20031;-47
2021/07/26 07:59:10;;;;;;;7.53;6.50;;;24.00;99.90;;;;;;5058881;28;20462;-47
2021/07/26 08:01:35;;;;;;;9.02;6.45;;;23.80;99.90;;;;;;5055500;28;20050;-47
2021/07/26 08:04:01;;;;;;;11.43;6.85;;;23.90;99.90;;;;;;5057989;28;20475;-47
2021/07/26 08:06:27;;;;;;;9.43;7.30;;;24.10;99.90;;;;;;5064949;28;20063;-48
2021/07/26 08:08:52;;;;;;;8.00;6.65;;;24.30;99.90;;;;;;5048433;28;20437;-47
2021/07/26 08:11:18;;;;;;;9.55;6.10;;;24.50;99.90;;;;;;5039917;28;20036;-48
2021/07/26 08:13:43;;;;;;;10.57;6.53;;;24.70;99.90;;;;;;5038042;28;20376;-47
2021/07/26 08:16:08;;;;;;;7.65;6.78;;;24.80;99.90;;;;;;5046915;28;20074;-47
2021/07/26 08:18:34;;;;;;;8.60;7.20;;;24.90;99.90;;;;;;5054775;28;20029;-48
2021/07/26 08:21:00;;;;;;;8.30;6.60;;;25.10;99.90;;;;;;5056072;28;20332;-48
2021/07/26 08:23:25;;;;;;;12.73;6.88;;;25.20;99.90;;;;;;5059546;28;20081;-47
2021/07/26 08:25:51;;;;;;;7.63;6.65;;;25.40;99.90;;;;;;5063992;28;20024;-49
2021/07/26 08:28:17;;;;;;;8.30;6.40;;;25.70;99.90;;;;;;5058444;28;20436;-47
2021/07/26 08:30:43;;;;;;;7.32;5.80;;;26.10;99.90;;;;;;5054754;28;20029;-48
2021/07/26 08:33:09;;;;;;;8.23;6.28;;;26.50;99.70;;;;;;5057281;28;20078;-51
2021/07/26 08:35:35;;;;;;;9.38;5.97;;;27.20;99.90;;;;;;5062594;28;20060;-48
2021/07/26 08:38:01;;;;;;;7.32;5.68;;;28.20;97.70;;;;;;5059978;28;20024;-50
2021/07/26 08:40:28;;;;;;;6.00;5.05;;;29.20;95.60;;;;;;5046149;28;20036;-48
2021/07/26 08:42:56;;;;;;;6.15;5.32;;;30.00;92.30;;;;;;5066679;28;20029;-47
2021/07/26 08:45:22;;;;;;;11.65;5.55;;;31.20;88.80;;;;;;5060755;28;20477;-46
2021/07/26 08:47:48;;;;;;;6.15;4.85;;;32.10;83.00;;;;;;5068405;28;20040;-47
2021/07/26 08:50:17;;;;;;;7.88;5.05;;;33.00;79.50;;;;;;5040505;28;20031;-47
2021/07/26 08:52:44;;;;;;;6.28;4.72;;;33.60;73.30;;;;;;5030731;28;20041;-48
2021/07/26 08:55:12;;;;;;;6.78;4.57;;;33.70;70.20;;;;;;5029426;28;20049;-48
2021/07/26 08:57:41;;;;;;;7.13;5.10;;;34.00;69.80;;;;;;5036855;28;20030;-50
2021/07/26 09:00:07;;;;;;;5.18;4.68;;;34.70;67.20;;;;;;5034348;28;20475;-49
2021/07/26 09:02:33;;;;;;;5.95;4.00;;;35.40;65.60;;;;;;5050490;28;20025;-48
2021/07/26 09:04:58;;;;;;;4.90;4.50;;;36.50;61.60;;;;;;5044354;28;20032;-48
2021/07/26 09:07:27;;;;;;;10.32;4.75;;;37.20;56.80;;;;;;5051861;28;20079;-48
2021/07/26 09:09:53;;;;;;;6.07;4.50;;;37.30;57.00;;;;;;5040124;28;20017;-49
2021/07/26 09:12:32;;;;;;;5.53;4.70;;;37.20;58.00;;;;;;5052712;28;20149;-47
2021/07/26 09:14:58;;;;;;;4.50;4.10;;;36.30;54.50;;;;;;5039243;28;20029;-50
2021/07/26 09:17:24;;;;;;;4.45;3.92;;;37.10;54.70;;;;;;5045680;28;20057;-51
2021/07/26 09:19:58;;;;;;;4.28;3.88;;;36.70;55.00;;;;;;5052411;28;20033;-50
2021/07/26 09:22:28;;;;;;;5.03;4.10;;;37.60;54.10;;;;;;5045806;28;20055;-49
2021/07/26 09:25:20;;;;;;;4.70;4.20;;;37.90;53.80;;;;;;5051866;28;20155;-49
2021/07/26 09:28:02;;;;;;;4.25;3.80;;;38.40;51.60;;;;;;5056337;28;20055;-49
2021/07/26 09:30:47;;;;;;;4.80;4.30;;;38.30;51.70;;;;;;5047848;28;20040;-49
2021/07/26 09:33:19;;;;;;;5.53;3.40;;;37.60;50.30;;;;;;5056880;28;20508;-50
2021/07/26 09:36:00;;;;;;;4.75;3.40;;;38.10;51.70;;;;;;5059375;28;20536;-48
2021/07/26 09:38:26;;;;;;;5.95;3.45;;;38.50;50.60;;;;;;5050194;28;20047;-50
2021/07/26 09:40:51;;;;;;;4.65;3.78;;;39.40;48.80;;;;;;5055124;28;20024;-50
2021/07/26 09:43:19;;;;;;;4.20;3.80;;;39.60;48.00;;;;;;5057508;28;20039;-50
2021/07/26 09:45:49;;;;;;;5.35;4.13;;;39.50;48.70;;;;;;5062368;28;20555;-50
2021/07/26 09:48:16;;;;;;;5.85;3.72;;;39.40;48.70;;;;;;5063608;28;20063;-50
2021/07/26 09:50:49;;;;;;;4.78;3.55;;;39.20;47.40;;;;;;5029874;28;20532;-49
2021/07/26 09:53:21;;;;;;;5.20;3.63;;;39.20;47.70;;;;;;5038300;28;20032;-47
2021/07/26 09:55:49;;;;;;;6.03;3.47;;;39.20;47.20;;;;;;5033618;28;20013;-47
2021/07/26 09:58:16;;;;;;;3.95;3.47;;;39.40;47.50;;;;;;5046785;28;20033;-50
2021/07/26 10:00:44;;;;;;;6.53;3.35;;;39.90;46.80;;;;;;5038401;28;20117;-50
2021/07/26 10:03:12;;;;;;;4.90;3.50;;;39.90;47.20;;;;;;5054964;28;20100;-47
2021/07/26 10:05:41;;;;;;;4.50;3.40;;;39.80;47.30;;;;;;5044111;28;20022;-49
2021/07/26 10:08:07;;;;;;;3.78;3.20;;;39.70;46.10;;;;;;5032090;28;20036;-49
2021/07/26 10:10:35;;;;;;;3.78;3.30;;;40.40;44.30;;;;;;5046624;28;20040;-48
2021/07/26 10:13:02;;;;;;;3.65;3.35;;;39.70;46.20;;;;;;5031451;28;20025;-50
2021/07/26 10:15:30;;;;;;;3.65;3.33;;;40.00;45.20;;;;;;5044706;28;20107;-48
2021/07/26 10:17:55;;;;;;;5.07;3.22;;;39.20;45.80;;;;;;5043760;28;20036;-49
2021/07/26 10:20:23;;;;;;;3.30;3.10;;;38.00;46.70;;;;;;5042232;28;20041;-50
2021/07/26 10:22:54;;;;;;;4.32;3.38;;;37.40;48.70;;;;;;5032500;28;20475;-48
2021/07/26 10:25:44;;;;;;;5.28;3.33;;;37.40;50.40;;;;;;5035251;28;20486;-48
2021/07/26 10:28:25;;;;;;;5.85;3.40;;;37.90;48.50;;;;;;5029157;28;20116;-48
2021/07/26 10:30:50;;;;;;;4.43;3.40;;;39.10;47.40;;;;;;5030280;28;20368;-47
2021/07/26 10:33:16;;;;;;;3.63;3.33;;;39.50;46.70;;;;;;5033810;28;20041;-50
2021/07/26 10:35:52;;;;;;;3.58;3.03;;;39.60;47.30;;;;;;5032508;28;20033;-50
2021/07/26 10:38:43;;;;;;;3.75;2.95;;;40.00;45.50;;;;;;5037527;28;20514;-49
2021/07/26 10:41:09;;;;;;;4.68;3.05;;;40.50;47.00;;;;;;5053790;28;20029;-50
2021/07/26 10:43:55;;;;;;;3.25;2.95;;;41.20;45.90;;;;;;5045952;28;20029;-48
2021/07/26 10:46:21;;;;;;;4.85;2.85;;;41.10;44.30;;;;;;5043055;28;20032;-50
2021/07/26 10:48:53;;;;;;;4.82;2.85;;;40.40;45.30;;;;;;5032715;28;20031;-50
2021/07/26 10:51:54;;;;;;;3.08;2.75;;;40.30;44.20;;;;;;5033668;28;20096;-48
2021/07/26 10:54:35;;;;;;;4.30;2.80;;;39.40;44.60;;;;;;5025858;28;20041;-47
2021/07/26 10:57:05;;;;;;;2.90;2.70;;;38.90;44.60;;;;;;5031876;28;20038;-47
2021/07/26 10:59:51;;;;;;;4.20;2.83;;;38.80;47.20;;;;;;5038963;28;20402;-48
2021/07/26 11:02:34;;;;;;;6.05;3.20;;;38.80;47.10;;;;;;5031511;28;20045;-48
2021/07/26 11:05:25;;;;;;;2.85;2.50;;;39.50;46.00;;;;;;5045046;28;20025;-50
2021/07/26 11:08:13;;;;;;;3.10;2.55;;;40.20;45.10;;;;;;5033008;28;20029;-47
2021/07/26 11:10:46;;;;;;;3.33;2.42;;;40.10;43.20;;;;;;5048892;28;20083;-47
2021/07/26 11:13:12;;;;;;;3.42;2.85;;;39.20;44.30;;;;;;5042907;28;20043;-47
2021/07/26 11:15:52;;;;;;;3.08;2.70;;;39.70;42.90;;;;;;5048864;28;20033;-49
2021/07/26 11:18:31;;;;;;;3.28;2.95;;;39.00;44.20;;;;;;5046161;28;20081;-50
2021/07/26 11:21:12;;;;;;;3.60;2.95;;;38.90;46.10;;;;;;5050721;28;20055;-48
2021/07/26 11:23:41;;;;;;;5.22;2.78;;;37.40;45.80;;;;;;5058669;28;20393;-50
2021/07/26 11:26:33;;;;;;;3.78;2.60;;;37.30;48.10;;;;;;5055947;28;20112;-47
2021/07/26 11:29:01;;;;;;;5.18;2.90;;;38.00;46.80;;;;;;5060486;28;20503;-47
2021/07/26 11:31:34;;;;;;;3.40;2.72;;;39.40;42.40;;;;;;5046019;28;20029;-49
2021/07/26 11:34:08;;;;;;;7.25;2.90;;;38.50;42.20;;;;;;5058038;28;20295;-49
2021/07/26 11:36:33;;;;;;;7.35;2.80;;;38.60;42.60;;;;;;5046481;28;20017;-48
2021/07/26 11:39:07;;;;;;;2.60;2.40;;;38.60;41.10;;;;;;5053159;28;20028;-48
2021/07/26 11:41:33;;;;;;;7.20;2.90;;;38.80;41.70;;;;;;5046547;28;20105;-47
2021/07/26 11:43:59;;;;;;;3.10;2.80;;;38.50;42.60;;;;;;5051235;28;20359;-50
2021/07/26 11:46:26;;;;;;;4.22;2.70;;;38.60;41.60;;;;;;5069437;28;20566;-50
2021/07/26 11:48:56;;;;;;;4.10;3.28;;;36.50;42.80;;;;;;5057434;28;20063;-47
2021/07/26 11:51:29;;;;;;;3.28;2.95;;;36.90;44.70;;;;;;5048797;28;20398;-47
2021/07/26 11:53:59;;;;;;;4.53;2.55;;;36.50;45.10;;;;;;5045899;28;20403;-50
2021/07/26 11:56:28;;;;;;;3.50;2.65;;;36.50;45.20;;;;;;5062289;28;20551;-49
2021/07/26 11:59:15;;;;;;;5.10;3.00;;;36.70;45.50;;;;;;5053062;28;20441;-50
2021/07/26 12:01:44;;;;;;;3.30;2.90;;;37.40;46.90;;;;;;5047539;28;20037;-49
2021/07/26 12:04:11;;;;;;;5.88;2.70;;;37.50;44.10;;;;;;5041019;28;20038;-49
2021/07/26 12:07:09;;;;;;;3.75;3.08;;;37.50;43.90;;;;;;5038467;28;20113;-49
2021/07/26 12:09:35;;;;;;;3.88;2.83;;;37.00;44.10;;;;;;5030825;28;20076;-46
2021/07/26 12:12:12;;;;;;;3.55;2.97;;;37.10;45.50;;;;;;5042854;28;20378;-46
2021/07/26 12:14:39;;;;;;;5.75;3.00;;;36.00;45.90;;;;;;5038033;28;20403;-47
2021/07/26 12:17:21;;;;;;;3.28;2.97;;;33.30;49.10;;;;;;5037260;28;20108;-46
2021/07/26 12:20:02;;;;;;;5.40;3.00;;;33.00;51.00;;;;;;5040081;28;20044;-47
2021/07/26 12:22:39;;;;;;;4.32;3.92;;;33.60;51.50;;;;;;5032624;28;20402;-47
2021/07/26 12:25:19;;;;;;;4.20;3.50;;;33.50;52.10;;;;;;5041468;28;20048;-46
2021/07/26 12:27:57;;;;;;;5.40;3.53;;;33.50;50.20;;;;;;5038088;28;20544;-46
2021/07/26 12:30:34;;;;;;;4.07;3.47;;;33.10;51.40;;;;;;5034572;28;20126;-46
2021/07/26 12:32:59;;;;;;;4.50;3.28;;;33.00;51.90;;;;;;5037787;28;20480;-48
2021/07/26 12:35:27;;;;;;;3.80;3.10;;;32.30;51.00;;;;;;5047032;28;20108;-49
2021/07/26 12:38:00;;;;;;;4.95;3.40;;;32.20;50.40;;;;;;5048137;28;20028;-46
2021/07/26 12:40:26;;;;;;;4.00;3.40;;;32.00;51.90;;;;;;5045125;28;20502;-46
2021/07/26 12:43:16;;;;;;;4.65;3.50;;;31.80;51.50;;;;;;5049071;28;20032;-47
2021/07/26 12:45:54;;;;;;;6.30;3.67;;;32.10;53.90;;;;;;5039909;28;20494;-46